Time;durP1;ratioP1;P1;durP2;ratioP2;P2;SDS_P1;SDS_P2;PMS_P1;PMS_P2;Temp;Humidity;BMP_temperature;BMP_pressure;BME280_temperature;BME280_humidity;BME280_pressure;Samples;Min_cycle;Max_cycle;Signal;HPM_P1;HPM_P2
2022/02/15 00:01:40;;;;;;;47.20;32.67;;;;;;;8.61;92.61;100561.06;5059549;28;20033;-78
2022/02/15 00:04:11;;;;;;;44.78;28.90;;;;;;;8.70;92.00;100556.25;5059916;28;20025;-78
2022/02/15 00:06:37;;;;;;;50.75;31.48;;;;;;;8.85;90.96;100558.41;5058916;28;20483;-78
2022/02/15 00:09:06;;;;;;;53.60;31.52;;;;;;;8.83;91.02;100560.69;5058615;28;20120;-78
2022/02/15 00:11:33;;;;;;;71.63;37.28;;;;;;;8.87;90.69;100556.06;5060762;28;20052;-78
2022/02/15 00:14:04;;;;;;;54.45;32.42;;;;;;;8.87;90.55;100550.53;5059408;28;20029;-77
2022/02/15 00:16:32;;;;;;;52.92;28.48;;;;;;;8.86;90.83;100551.69;5057633;28;20127;-78
2022/02/15 00:19:00;;;;;;;50.03;31.73;;;;;;;8.86;90.58;100548.09;5057519;28;20039;-78
2022/02/15 00:21:31;;;;;;;50.53;27.58;;;;;;;8.81;90.80;100538.03;5059650;28;20091;-78
2022/02/15 00:24:00;;;;;;;41.47;29.10;;;;;;;8.79;90.75;100543.13;5059667;28;20079;-78
2022/02/15 00:26:31;;;;;;;45.20;26.75;;;;;;;8.79;91.12;100543.13;5059857;28;20040;-78
2022/02/15 00:29:01;;;;;;;39.83;26.25;;;;;;;8.76;91.34;100538.25;5060262;28;20029;-79
2022/02/15 00:31:35;;;;;;;43.17;26.70;;;;;;;8.73;91.34;100533.38;5060887;28;20036;-78
2022/02/15 00:34:00;;;;;;;;;;;;;;;8.76;91.19;100540.22;5061986;28;20036;-78
2022/02/15 00:36:26;;;;;;;38.90;26.42;;;;;;;8.70;91.70;100530.47;5056482;28;19908;-78
2022/02/15 00:38:57;;;;;;;48.20;29.35;;;;;;;8.73;91.43;100533.38;5056246;28;20494;-78
2022/02/15 00:41:23;;;;;;;36.20;24.83;;;;;;;8.71;91.54;100529.31;5057339;28;20044;-78
2022/02/15 00:43:53;;;;;;;35.25;26.15;;;;;;;8.71;91.98;100534.88;5057172;28;20033;-79
2022/02/15 00:46:21;;;;;;;38.55;24.80;;;;;;;8.72;91.96;100526.19;5056198;28;20442;-78
2022/02/15 00:48:49;;;;;;;45.70;27.35;;;;;;;8.71;91.70;100524.59;5056396;28;20029;-79
2022/02/15 00:51:23;;;;;;;48.05;27.90;;;;;;;8.67;91.59;100518.09;5056513;28;20033;-79
2022/02/15 00:53:54;;;;;;;38.08;25.63;;;;;;;8.60;92.03;100515.88;5056774;28;20025;-79
2022/02/15 00:56:20;;;;;;;35.00;23.65;;;;;;;8.61;92.09;100511.94;5056421;28;20063;-79
2022/02/15 00:58:51;;;;;;;39.33;27.00;;;;;;;8.54;92.07;100502.56;5057205;28;20025;-79
2022/02/15 01:01:17;;;;;;;33.90;23.02;;;;;;;8.52;92.12;100504.88;5056698;28;20044;-79
2022/02/15 01:03:47;;;;;;;39.03;24.55;;;;;;;8.34;92.19;100476.47;5058324;28;20133;-79
2022/02/15 01:06:18;;;;;;;39.17;25.05;;;;;;;8.48;92.30;100509.50;5057028;28;20043;-79
2022/02/15 01:08:46;;;;;;;33.60;24.40;;;;;;;8.46;92.20;100500.69;5056925;28;20036;-79
2022/02/15 01:11:12;;;;;;;35.03;25.35;;;;;;;8.46;92.63;100500.69;5056827;28;20029;-79
2022/02/15 01:13:40;;;;;;;37.58;24.25;;;;;;;8.44;92.74;100497.44;5056675;28;20029;-79
2022/02/15 01:16:12;;;;;;;34.85;23.17;;;;;;;8.46;92.82;100500.69;5053937;28;20037;-78
2022/02/15 01:18:40;;;;;;;34.53;24.80;;;;;;;8.39;92.83;100485.41;5054275;28;20430;-78
2022/02/15 01:21:09;;;;;;;33.45;22.63;;;;;;;8.43;92.57;100491.09;5054583;28;20036;-78
2022/02/15 01:23:37;;;;;;;33.60;22.45;;;;;;;8.40;92.56;100487.03;5055594;28;20482;-78
2022/02/15 01:26:06;;;;;;;35.08;21.95;;;;;;;8.44;92.21;100483.59;5056695;28;20075;-79
2022/02/15 01:28:34;;;;;;;38.78;24.92;;;;;;;8.43;91.95;100473.66;5057043;28;20086;-78
2022/02/15 01:31:04;;;;;;;35.60;23.08;;;;;;;8.40;91.39;100470.38;5056808;28;20132;-78
2022/02/15 01:33:29;;;;;;;32.10;22.27;;;;;;;8.42;91.81;100472.84;5056052;28;20036;-78
2022/02/15 01:36:00;;;;;;;28.35;20.15;;;;;;;8.44;91.08;100464.19;5056862;28;20037;-78
2022/02/15 01:38:31;;;;;;;32.83;21.40;;;;;;;8.43;91.00;100457.00;5056877;28;20111;-78
2022/02/15 01:41:05;;;;;;;34.80;21.48;;;;;;;8.41;90.94;100465.66;5055823;28;20537;-79
2022/02/15 01:43:42;;;;;;;33.92;21.88;;;;;;;8.39;90.75;100459.66;5056418;28;20371;-78
2022/02/15 01:46:14;;;;;;;33.78;21.67;;;;;;;8.45;90.63;100454.69;5057824;28;20033;-78
2022/02/15 01:48:47;;;;;;;23.42;18.83;;;;;;;8.34;90.67;100438.47;5057036;28;20029;-78
2022/02/15 01:51:17;;;;;;;28.83;19.73;;;;;;;8.34;90.55;100438.47;5057385;28;20033;-78
2022/02/15 01:53:43;;;;;;;26.52;17.75;;;;;;;8.37;90.64;100437.81;5056956;28;20032;-78
2022/02/15 01:56:11;;;;;;;29.60;19.00;;;;;;;8.34;90.22;100437.66;5056958;28;20021;-78
2022/02/15 01:58:38;;;;;;;28.77;18.90;;;;;;;8.36;90.32;100430.66;5060965;28;20115;-78
2022/02/15 02:01:04;;;;;;;26.30;17.92;;;;;;;8.32;90.43;100439.97;5060797;28;20043;-79
2022/02/15 02:03:31;;;;;;;23.80;17.27;;;;;;;8.28;90.25;100430.72;5061504;28;20435;-78
2022/02/15 02:06:02;;;;;;;30.10;17.98;;;;;;;8.28;90.41;100436.25;5062137;28;20038;-78
2022/02/15 02:08:31;;;;;;;23.13;17.10;;;;;;;8.20;90.65;100431.59;5061294;28;20525;-78
2022/02/15 02:10:58;;;;;;;26.75;19.30;;;;;;;8.25;91.06;100425.84;5061505;28;20025;-78
2022/02/15 02:13:30;;;;;;;24.88;16.83;;;;;;;8.21;91.03;100422.94;5061501;28;20029;-78
2022/02/15 02:15:56;;;;;;;23.13;16.52;;;;;;;8.22;90.86;100429.31;5061799;28;20025;-78
2022/02/15 02:18:26;;;;;;;20.05;15.45;;;;;;;8.22;91.11;100413.47;5061359;28;20040;-79
2022/02/15 02:20:54;;;;;;;25.08;16.75;;;;;;;8.22;90.82;100410.72;5061498;28;20025;-78
2022/02/15 02:23:22;;;;;;;23.58;16.40;;;;;;;8.27;90.12;100404.94;5060387;28;20549;-79
2022/02/15 02:25:48;;;;;;;16.98;13.00;;;;;;;8.39;89.89;100407.78;5060468;28;20104;-78
2022/02/15 02:28:13;;;;;;;21.92;14.95;;;;;;;8.39;89.52;100396.69;5061407;28;20060;-79
2022/02/15 02:30:45;;;;;;;19.35;15.85;;;;;;;8.36;89.63;100410.41;5062044;28;20029;-78
2022/02/15 02:33:13;;;;;;;23.10;16.13;;;;;;;8.32;89.22;100401.97;5061274;28;20059;-78
2022/02/15 02:35:39;;;;;;;19.88;14.50;;;;;;;8.44;88.73;100403.19;5061671;28;20029;-78
2022/02/15 02:38:07;;;;;;;15.73;11.85;;;;;;;8.49;88.45;100395.44;5059717;28;20112;-78
2022/02/15 02:40:38;;;;;;;19.77;14.27;;;;;;;8.42;87.49;100383.31;5060740;28;20052;-79
2022/02/15 02:43:06;;;;;;;18.92;14.07;;;;;;;8.55;86.94;100398.81;5060997;28;20087;-78
2022/02/15 02:45:35;;;;;;;21.75;14.23;;;;;;;8.58;86.73;100403.69;5061236;28;20119;-78
2022/02/15 02:48:03;;;;;;;20.23;13.80;;;;;;;8.55;86.33;100394.06;5061321;28;20056;-79
2022/02/15 02:50:30;;;;;;;15.57;12.02;;;;;;;8.54;86.77;100391.66;5061555;28;20033;-78
2022/02/15 02:52:59;;;;;;;23.10;12.63;;;;;;;8.53;86.79;100392.81;5061784;28;20040;-79
2022/02/15 02:55:29;;;;;;;17.65;13.07;;;;;;;8.53;86.75;100398.34;5062461;28;20375;-78
2022/02/15 02:57:54;;;;;;;20.23;12.50;;;;;;;8.56;86.27;100400.41;5061604;28;20040;-78
2022/02/15 03:00:23;;;;;;;17.58;12.07;;;;;;;8.56;86.64;100395.69;5060751;28;20033;-80
2022/02/15 03:02:53;;;;;;;14.70;12.23;;;;;;;8.50;86.64;100387.94;5062478;28;20036;-79
2022/02/15 03:05:24;;;;;;;19.83;11.77;;;;;;;8.56;86.68;100392.91;5062632;28;20025;-79
2022/02/15 03:07:50;;;;;;;11.27;9.43;;;;;;;8.65;85.85;100390.03;5062897;28;20109;-79
2022/02/15 03:10:22;;;;;;;20.13;11.38;;;;;;;8.77;85.71;100395.59;5063563;28;20052;-79
2022/02/15 03:12:50;;;;;;;14.20;9.48;;;;;;;8.78;85.22;100382.53;5062270;28;20064;-80
2022/02/15 03:15:18;;;;;;;26.85;15.60;;;;;;;8.76;85.38;100382.88;5057366;28;20051;-79
2022/02/15 03:17:46;;;;;;;18.80;11.57;;;;;;;8.82;85.31;100383.47;5058075;28;20438;-79
2022/02/15 03:20:12;;;;;;;14.98;9.85;;;;;;;8.84;85.05;100384.75;5058328;28;20106;-79
2022/02/15 03:22:40;;;;;;;13.73;9.85;;;;;;;8.88;84.52;100385.66;5058122;28;20048;-79
2022/02/15 03:25:06;;;;;;;15.70;8.77;;;;;;;8.83;84.55;100383.09;5057583;28;20112;-79
2022/02/15 03:27:37;;;;;;;15.32;11.32;;;;;;;8.87;84.28;100381.25;5057272;28;20071;-79
2022/02/15 03:30:03;;;;;;;18.15;11.35;;;;;;;8.84;83.72;100384.75;5058101;28;20043;-79
2022/02/15 03:32:31;;;;;;;15.88;11.75;;;;;;;8.89;84.42;100389.22;5059180;28;20104;-79
2022/02/15 03:35:01;;;;;;;17.98;12.73;;;;;;;8.89;84.49;100392.00;5057767;28;20025;-79
2022/02/15 03:37:29;;;;;;;17.33;12.25;;;;;;;8.81;84.70;100379.06;5059347;28;20025;-79
2022/02/15 03:39:58;;;;;;;20.50;12.52;;;;;;;8.79;84.89;100389.69;5058109;28;20036;-80
2022/02/15 03:45:07;;;;;;;19.52;14.27;;;;;;;8.76;86.03;100399.53;5059339;28;20051;-79
2022/02/15 03:47:36;;;;;;;19.10;13.90;;;;;;;8.80;85.55;100388.56;5058016;28;20032;-79
2022/02/15 03:50:04;;;;;;;29.38;15.88;;;;;;;8.91;85.13;100393.28;5057178;28;20040;-79
2022/02/15 03:52:30;;;;;;;25.15;14.32;;;;;;;8.88;85.96;100396.75;5057612;28;20135;-80
2022/02/15 03:54:55;;;;;;;25.30;14.10;;;;;;;8.84;85.92;100378.38;5057662;28;20483;-80
2022/02/15 03:57:23;;;;;;;20.17;14.35;;;;;;;8.87;85.98;100386.81;5057186;28;20024;-78
2022/02/15 03:59:54;;;;;;;21.85;13.55;;;;;;;8.88;85.73;100390.41;5057502;28;20049;-79
2022/02/15 04:02:25;;;;;;;19.02;12.90;;;;;;;8.97;85.74;100393.06;5057059;28;20028;-79
2022/02/15 04:04:50;;;;;;;20.17;15.40;;;;;;;8.91;85.85;100390.53;5056889;28;20126;-78
2022/02/15 04:07:21;;;;;;;24.30;14.27;;;;;;;8.91;86.32;100384.97;5058192;28;20032;-79
2022/02/15 04:09:49;;;;;;;21.92;15.40;;;;;;;8.88;85.98;100402.31;5057565;28;20029;-78
2022/02/15 04:12:21;;;;;;;26.67;14.30;;;;;;;8.89;86.42;100398.41;5057750;28;20021;-78
2022/02/15 04:14:49;;;;;;;18.38;13.88;;;;;;;8.92;86.36;100406.00;5057597;28;20423;-78
2022/02/15 04:17:15;;;;;;;18.95;12.98;;;;;;;8.89;85.88;100409.50;5057651;28;20036;-79
2022/02/15 04:19:43;;;;;;;23.13;13.93;;;;;;;8.89;86.16;100401.16;5057093;28;20507;-79
2022/02/15 04:22:09;;;;;;;17.77;13.23;;;;;;;8.86;86.53;100401.84;5057467;28;20028;-78
2022/02/15 04:24:37;;;;;;;20.23;14.68;;;;;;;8.91;86.74;100400.81;5054820;28;20460;-79
2022/02/15 04:27:06;;;;;;;24.58;16.45;;;;;;;8.95;86.85;100395.34;5056750;28;20040;-78
2022/02/15 04:29:35;;;;;;;27.50;18.27;;;;;;;8.90;86.84;100397.22;5057096;28;20096;-78
2022/02/15 04:32:00;;;;;;;24.27;16.30;;;;;;;8.93;86.61;100399.28;5055822;28;20035;-79
2022/02/15 04:34:31;;;;;;;21.95;13.85;;;;;;;8.96;86.43;100413.66;5054498;28;20029;-80
2022/02/15 04:36:57;;;;;;;19.27;12.85;;;;;;;9.01;86.71;100410.66;5053377;28;20063;-80
2022/02/15 04:39:27;;;;;;;16.88;11.98;;;;;;;9.04;86.48;100412.72;5053387;28;20102;-79
2022/02/15 04:41:56;;;;;;;19.38;12.95;;;;;;;9.06;85.68;100415.97;5055011;28;20033;-79
2022/02/15 04:44:22;;;;;;;19.17;10.73;;;;;;;9.06;85.25;100408.44;5056609;28;20095;-79
2022/02/15 04:46:50;;;;;;;13.20;9.88;;;;;;;9.03;84.81;100411.91;5057600;28;20037;-78
2022/02/15 04:49:18;;;;;;;12.48;9.90;;;;;;;9.05;84.35;100411.56;5057568;28;20021;-78
2022/02/15 04:51:46;;;;;;;15.07;10.43;;;;;;;9.05;84.71;100406.81;5058096;28;20035;-79
2022/02/15 04:54:12;;;;;;;13.55;10.30;;;;;;;9.05;84.07;100394.91;5057963;28;20426;-78
2022/02/15 05:00:33;;;;;;;12.18;8.95;;;;;;;9.06;83.62;100391.81;5059379;28;20044;-78
2022/02/15 05:03:21;;;;;;;14.07;9.77;;;;;;;9.12;82.26;100395.97;5058798;28;20067;-79
2022/02/15 05:06:14;;;;;;;13.10;10.80;;;;;;;9.26;82.39;100395.56;5060164;28;20372;-79
2022/02/15 05:08:47;;;;;;;11.00;8.02;;;;;;;9.29;80.72;100400.44;5058448;28;20036;-80
2022/02/15 05:11:19;;;;;;;17.87;13.30;;;;;;;9.29;81.69;100361.56;5058750;28;20525;-79
2022/02/15 05:13:44;;;;;;;18.02;10.88;;;;;;;9.33;82.25;100392.25;5058312;28;20039;-79
2022/02/15 05:16:13;;;;;;;15.07;10.75;;;;;;;9.41;81.69;100380.19;5058707;28;20092;-79
2022/02/15 05:18:43;;;;;;;10.90;9.77;;;;;;;9.40;81.23;100396.03;5058825;28;20513;-79
2022/02/15 05:21:09;;;;;;;14.63;7.85;;;;;;;9.41;79.87;100380.97;5059707;28;20040;-79
2022/02/15 05:23:37;;;;;;;9.90;8.60;;;;;;;9.49;78.37;100382.03;5057040;28;20443;-80
2022/02/15 05:26:03;;;;;;;13.05;7.20;;;;;;;9.52;78.54;100394.38;5059351;28;20440;-80
2022/02/15 05:28:31;;;;;;;17.73;9.85;;;;;;;9.48;79.00;100374.03;5057753;28;20033;-79
2022/02/15 05:31:02;;;;;;;25.13;16.55;;;;;;;9.76;77.80;100377.66;5057754;28;20036;-79
2022/02/15 05:33:30;;;;;;;29.50;18.83;;;;;;;9.68;77.87;100378.59;5062772;28;20028;-79
2022/02/15 05:36:00;;;;;;;19.02;13.98;;;;;;;9.81;78.59;100380.19;5062160;28;20475;-80
2022/02/15 05:38:26;;;;;;;16.88;12.45;;;;;;;9.73;79.46;100380.31;5060593;28;20121;-79
2022/02/15 05:40:53;;;;;;;17.10;11.85;;;;;;;9.56;80.02;100379.44;5063998;28;20049;-79
2022/02/15 05:43:18;;;;;;;19.75;11.82;;;;;;;9.45;80.36;100379.13;5064951;28;20376;-79
2022/02/15 05:45:46;;;;;;;13.73;11.60;;;;;;;9.44;80.37;100385.84;5064357;28;20036;-80
2022/02/15 05:48:12;;;;;;;20.55;13.93;;;;;;;9.43;80.70;100387.00;5066620;28;20037;-80
2022/02/15 05:50:49;;;;;;;30.08;17.10;;;;;;;9.50;81.14;100388.38;5066504;28;20047;-80
2022/02/15 05:53:26;;;;;;;24.33;15.65;;;;;;;9.46;81.41;100388.25;5064993;28;20033;-80
2022/02/15 05:55:54;;;;;;;25.40;15.40;;;;;;;9.42;82.18;100384.56;5059358;28;20032;-81
2022/02/15 05:58:20;;;;;;;20.75;14.52;;;;;;;9.63;80.31;100387.19;5060096;28;20029;-79
2022/02/15 06:00:46;;;;;;;19.92;13.13;;;;;;;9.54;80.19;100383.75;5062719;28;20017;-80
2022/02/15 06:06:01;;;;;;;;;;;;;;;9.43;81.21;100384.25;5060836;28;20110;-80
2022/02/15 06:08:30;;;;;;;22.58;13.77;;;;;;;9.47;81.48;100377.97;5062063;28;19932;-80
2022/02/15 06:10:55;;;;;;;18.13;13.85;;;;;;;9.44;81.34;100390.59;5063492;28;20029;-80
2022/02/15 06:13:26;;;;;;;28.20;16.27;;;;;;;9.47;82.44;100378.78;5063613;28;20051;-79
2022/02/15 06:15:54;;;;;;;22.70;14.32;;;;;;;9.46;81.85;100377.16;5063598;28;20439;-80
2022/02/15 06:18:26;;;;;;;19.20;16.17;;;;;;;9.48;82.73;100385.13;5063455;28;20391;-79
2022/02/15 06:20:56;;;;;;;21.05;15.45;;;;;;;9.47;82.77;100370.44;5063515;28;20036;-79
2022/02/15 06:23:25;;;;;;;19.98;15.82;;;;;;;9.43;83.36;100373.13;5063509;28;20152;-80
2022/02/15 06:25:51;;;;;;;27.20;17.08;;;;;;;9.42;82.89;100371.50;5063694;28;20033;-80
2022/02/15 06:28:16;;;;;;;20.55;16.20;;;;;;;9.43;83.59;100359.25;5064415;28;20067;-79
2022/02/15 06:30:45;;;;;;;23.00;18.27;;;;;;;9.50;83.02;100360.59;5062904;28;20033;-80
2022/02/15 06:33:11;;;;;;;23.35;17.05;;;;;;;9.43;82.82;100356.47;5060281;28;20021;-79
2022/02/15 06:35:36;;;;;;;24.40;15.93;;;;;;;9.44;82.35;100358.06;5060022;28;20040;-79
2022/02/15 06:38:02;;;;;;;21.70;15.05;;;;;;;9.44;82.14;100355.31;5062423;28;20365;-80
2022/02/15 06:40:27;;;;;;;25.73;15.40;;;;;;;9.50;81.79;100357.84;5061030;28;20069;-80
2022/02/15 06:42:53;;;;;;;28.40;16.75;;;;;;;9.52;81.53;100352.72;5058842;28;20021;-79
2022/02/15 06:45:21;;;;;;;26.42;16.35;;;;;;;9.50;81.25;100346.72;5061123;28;20475;-80
2022/02/15 06:47:47;;;;;;;23.00;16.60;;;;;;;9.51;81.95;100349.13;5060839;28;20029;-79
2022/02/15 06:50:13;;;;;;;32.88;16.73;;;;;;;9.54;82.15;100358.75;5061205;28;20041;-80
2022/02/15 06:52:40;;;;;;;27.63;17.67;;;;;;;9.54;82.23;100372.66;5062301;28;20358;-80
2022/02/15 06:55:07;;;;;;;31.70;19.88;;;;;;;9.53;82.32;100359.88;5058426;28;20082;-80
2022/02/15 06:57:35;;;;;;;27.63;17.10;;;;;;;9.56;82.08;100364.75;5061266;28;20040;-80
2022/02/15 07:00:01;;;;;;;31.95;17.63;;;;;;;9.53;82.56;100360.69;5062047;28;20065;-80
2022/02/15 07:02:28;;;;;;;27.13;19.95;;;;;;;9.72;82.00;100368.41;5060386;28;20064;-80
2022/02/15 07:04:54;;;;;;;28.35;19.55;;;;;;;9.58;81.66;100356.88;5060913;28;20036;-80
2022/02/15 07:07:20;;;;;;;34.63;22.85;;;;;;;9.59;82.11;100372.41;5059015;28;20372;-80
2022/02/15 07:09:48;;;;;;;31.50;21.52;;;;;;;9.58;82.83;100366.00;5057665;28;20525;-80
2022/02/15 07:12:16;;;;;;;28.85;22.50;;;;;;;9.57;82.32;100358.84;5060837;28;20024;-80
2022/02/15 07:14:42;;;;;;;37.78;24.73;;;;;;;9.59;82.32;100350.19;5061779;28;20075;-80
2022/02/15 07:17:08;;;;;;;34.15;24.17;;;;;;;9.63;83.13;100359.41;5061033;28;20029;-80
2022/02/15 07:19:36;;;;;;;31.85;22.88;;;;;;;9.69;82.85;100352.44;5060004;28;20032;-80
2022/02/15 07:22:02;;;;;;;33.13;22.70;;;;;;;9.71;83.52;100355.69;5060510;28;20028;-80
2022/02/15 07:24:28;;;;;;;29.83;21.20;;;;;;;9.80;83.15;100338.84;5060593;28;20044;-80
2022/02/15 07:26:56;;;;;;;30.45;22.00;;;;;;;9.85;83.41;100350.50;5061000;28;20123;-80
2022/02/15 07:29:22;;;;;;;27.80;21.08;;;;;;;9.94;83.05;100351.19;5059700;28;20479;-80
2022/02/15 07:31:51;;;;;;;30.52;20.15;;;;;;;10.03;82.43;100351.03;5058795;28;20021;-80
2022/02/15 07:34:19;;;;;;;29.20;18.38;;;;;;;10.11;82.69;100338.13;5058756;28;20033;-79
2022/02/15 07:36:45;;;;;;;23.88;16.90;;;;;;;10.17;82.10;100329.19;5059880;28;20468;-80
2022/02/15 07:39:13;;;;;;;25.30;18.25;;;;;;;10.16;81.99;100335.88;5059542;28;20079;-80
2022/02/15 07:41:39;;;;;;;24.40;18.17;;;;;;;10.18;82.05;100341.13;5060073;28;20033;-80
2022/02/15 07:44:05;;;;;;;26.48;17.05;;;;;;;10.17;82.10;100343.09;5059906;28;20128;-80
2022/02/15 07:46:33;;;;;;;25.00;16.67;;;;;;;9.87;81.68;100292.63;5061176;28;20032;-80
2022/02/15 07:49:01;;;;;;;29.20;17.25;;;;;;;10.16;82.51;100349.78;5060831;28;20029;-80
2022/02/15 07:51:27;;;;;;;20.63;15.85;;;;;;;10.21;82.13;100340.38;5061413;28;20028;-80
2022/02/15 07:53:55;;;;;;;21.95;15.90;;;;;;;10.15;82.43;100339.03;5062179;28;20041;-80
2022/02/15 07:56:23;;;;;;;22.35;16.95;;;;;;;10.22;82.20;100330.88;5060023;28;20170;-80
2022/02/15 07:59:06;;;;;;;28.80;16.25;;;;;;;10.22;82.78;100340.00;5060606;28;20130;-79
2022/02/15 08:01:32;;;;;;;20.08;14.18;;;;;;;10.23;83.19;100322.22;5059497;28;20032;-80
2022/02/15 08:04:00;;;;;;;22.90;15.65;;;;;;;10.16;84.22;100340.63;5058520;28;20033;-79
2022/02/15 08:06:25;;;;;;;23.33;17.27;;;;;;;10.09;84.24;100326.56;5061597;28;20112;-80
2022/02/15 08:08:51;;;;;;;24.70;18.60;;;;;;;10.12;84.70;100328.59;5060791;28;20447;-80
2022/02/15 08:11:17;;;;;;;26.08;15.10;;;;;;;10.21;83.59;100323.69;5060268;28;20029;-80
2022/02/15 08:13:43;;;;;;;25.67;18.73;;;;;;;10.31;83.15;100325.19;5060741;28;20029;-80
2022/02/15 08:16:09;;;;;;;25.92;15.68;;;;;;;10.38;82.57;100328.94;5061729;28;20025;-80
2022/02/15 08:18:41;;;;;;;22.23;15.77;;;;;;;10.44;82.25;100312.81;5060166;28;20040;-80
2022/02/15 08:21:08;;;;;;;23.40;13.43;;;;;;;10.54;81.81;100328.13;5060924;28;20119;-80
2022/02/15 08:23:34;;;;;;;22.30;11.52;;;;;;;10.64;81.41;100341.50;5060492;28;20049;-80
2022/02/15 08:25:59;;;;;;;8.77;7.47;;;;;;;10.78;81.71;100353.00;5061204;28;20106;-77
2022/02/15 08:28:28;;;;;;;9.48;7.03;;;;;;;10.81;84.11;100332.78;5058585;28;20040;-77
2022/02/15 08:30:54;;;;;;;10.95;8.18;;;;;;;10.80;85.80;100344.28;5058034;28;20032;-76
2022/02/15 08:33:19;;;;;;;9.23;7.75;;;;;;;10.82;86.14;100348.34;5059003;28;20039;-76
2022/02/15 08:35:45;;;;;;;10.05;6.10;;;;;;;10.82;86.15;100351.13;5057816;28;20024;-76
2022/02/15 08:38:10;;;;;;;11.48;6.15;;;;;;;10.78;86.92;100352.22;5053620;28;20103;-76
2022/02/15 08:40:36;;;;;;;9.43;5.80;;;;;;;10.70;87.95;100342.84;5053740;28;20379;-76
2022/02/15 08:43:02;;;;;;;7.65;5.72;;;;;;;10.73;89.62;100347.72;5053801;28;20037;-75
2022/02/15 08:45:27;;;;;;;9.18;6.00;;;;;;;10.70;90.56;100346.44;5053546;28;20024;-75
2022/02/15 08:47:56;;;;;;;11.95;6.25;;;;;;;10.68;91.99;100348.00;5053116;28;20483;-75
2022/02/15 08:50:25;;;;;;;10.18;7.80;;;;;;;10.62;93.31;100338.28;5053217;28;20427;-75
2022/02/15 08:52:54;;;;;;;16.75;9.80;;;;;;;10.59;93.93;100362.06;5053386;28;20021;-75
2022/02/15 08:55:26;;;;;;;17.20;9.30;;;;;;;10.49;94.59;100357.88;5053182;28;20033;-75
2022/02/15 08:57:54;;;;;;;13.48;7.13;;;;;;;10.42;96.06;100343.75;5053106;28;20067;-75
2022/02/15 09:00:19;;;;;;;14.35;7.60;;;;;;;10.37;96.78;100332.88;5052760;28;20494;-75
2022/02/15 09:02:45;;;;;;;14.30;7.85;;;;;;;10.40;96.23;100340.53;5052748;28;20033;-75
2022/02/15 09:05:11;;;;;;;10.02;5.90;;;;;;;10.40;96.18;100343.31;5053553;28;20032;-76
2022/02/15 09:07:39;;;;;;;10.02;5.70;;;;;;;10.33;95.97;100351.44;5053827;28;20036;-76
2022/02/15 09:10:08;;;;;;;14.20;6.65;;;;;;;10.00;93.67;100364.81;5053489;28;20087;-76
2022/02/15 09:12:33;;;;;;;10.48;5.43;;;;;;;9.75;94.02;100348.25;5053642;28;20033;-76
2022/02/15 09:15:01;;;;;;;20.70;5.13;;;;;;;9.41;94.89;100358.75;5053076;28;20473;-76
2022/02/15 09:17:27;;;;;;;13.48;5.10;;;;;;;9.22;95.28;100383.56;5053360;28;20391;-75
2022/02/15 09:19:52;;;;;;;13.23;4.80;;;;;;;9.12;95.70;100372.94;5052853;28;20047;-76
2022/02/15 09:22:18;;;;;;;16.58;6.07;;;;;;;9.09;96.00;100355.00;5052395;28;20059;-76
2022/02/15 09:24:45;;;;;;;15.27;5.85;;;;;;;9.09;96.75;100368.06;5054216;28;20056;-75
2022/02/15 09:27:12;;;;;;;17.13;7.25;;;;;;;9.15;97.46;100381.38;5054097;28;20055;-76
2022/02/15 09:29:40;;;;;;;24.55;12.05;;;;;;;9.23;98.17;100387.16;5052482;28;20079;-76
2022/02/15 09:32:06;;;;;;;22.05;8.75;;;;;;;9.27;98.99;100383.34;5052481;28;20029;-76
2022/02/15 09:34:34;;;;;;;19.13;7.10;;;;;;;9.38;100.00;100387.25;5052614;28;20029;-76
2022/02/15 09:36:59;;;;;;;13.15;6.43;;;;;;;9.43;100.00;100370.34;5052455;28;20025;-75
2022/02/15 09:39:25;;;;;;;13.23;5.47;;;;;;;9.43;100.00;100375.91;5052312;28;20108;-75
2022/02/15 09:41:51;;;;;;;11.40;4.90;;;;;;;9.44;98.80;100373.94;5052227;28;20029;-75
2022/02/15 09:44:19;;;;;;;16.88;6.15;;;;;;;9.51;98.10;100395.56;5052932;28;20087;-75
2022/02/15 09:46:46;;;;;;;10.35;4.68;;;;;;;9.50;98.42;100382.84;5052076;28;20065;-75
2022/02/15 09:51:59;;;;;;;;;;;;;;;9.57;99.34;100394.94;5054288;28;20122;-75
2022/02/15 09:54:27;;;;;;;23.65;4.75;;;;;;;9.66;100.00;100395.63;5052395;28;19913;-75
2022/02/15 09:56:53;;;;;;;21.33;7.40;;;;;;;9.73;100.00;100397.81;5052216;28;20128;-75
2022/02/15 09:59:19;;;;;;;21.23;7.38;;;;;;;9.74;100.00;100396.63;5052072;28;20056;-75
2022/02/15 10:01:46;;;;;;;26.60;9.70;;;;;;;9.86;100.00;100406.94;5052086;28;20025;-76
2022/02/15 10:04:12;;;;;;;26.17;11.60;;;;;;;9.92;100.00;100406.31;5052489;28;20543;-75
2022/02/15 10:06:40;;;;;;;25.70;8.73;;;;;;;10.02;100.00;100409.78;5052464;28;20110;-75
2022/02/15 10:09:10;;;;;;;28.10;7.38;;;;;;;9.96;100.00;100412.00;5053056;28;20521;-77
2022/02/15 10:11:37;;;;;;;21.35;7.78;;;;;;;9.86;100.00;100438.31;5053226;28;20029;-78
2022/02/15 10:14:03;;;;;;;16.55;7.43;;;;;;;9.83;100.00;100457.66;5053157;28;20486;-79
2022/02/15 10:16:30;;;;;;;21.70;5.95;;;;;;;9.77;100.00;100450.72;5053378;28;20033;-79
2022/02/15 10:18:57;;;;;;;26.25;7.22;;;;;;;9.64;100.00;100438.81;5055565;28;20032;-79
2022/02/15 10:21:28;;;;;;;24.73;8.23;;;;;;;9.57;100.00;100433.03;5058151;28;20025;-79
2022/02/15 10:23:53;;;;;;;13.90;6.85;;;;;;;9.56;100.00;100428.66;5056637;28;20055;-80
2022/02/15 10:26:19;;;;;;;15.75;6.38;;;;;;;9.59;100.00;100452.97;5057714;28;20056;-79
2022/02/15 10:28:46;;;;;;;15.82;8.07;;;;;;;9.55;100.00;100446.47;5056954;28;20088;-79
2022/02/15 10:31:14;;;;;;;20.15;8.48;;;;;;;9.51;100.00;100395.56;5059287;28;20079;-79
2022/02/15 10:33:48;;;;;;;30.92;9.75;;;;;;;9.58;100.00;100402.13;5058687;28;20083;-79
2022/02/15 10:36:14;;;;;;;25.13;9.48;;;;;;;9.76;100.00;100418.53;5060116;28;20388;-79
2022/02/15 10:38:41;;;;;;;26.60;12.52;;;;;;;9.96;100.00;100412.00;5059656;28;20072;-79
2022/02/15 10:41:12;;;;;;;36.47;12.45;;;;;;;9.86;100.00;100390.25;5060680;28;20033;-79
2022/02/15 10:43:48;;;;;;;17.73;9.45;;;;;;;10.09;99.95;100401.63;5060075;28;20122;-79
2022/02/15 10:46:19;;;;;;;29.00;10.75;;;;;;;10.23;100.00;100393.69;5060290;28;20036;-79
2022/02/15 10:48:46;;;;;;;23.48;11.05;;;;;;;10.36;99.26;100403.59;5061566;28;20075;-79
2022/02/15 10:51:16;;;;;;;27.27;10.50;;;;;;;10.50;99.60;100403.19;5062304;28;20559;-79
2022/02/15 10:53:42;;;;;;;27.02;11.45;;;;;;;10.57;99.11;100408.13;5061806;28;20460;-79
2022/02/15 10:56:08;;;;;;;21.17;11.25;;;;;;;10.57;98.53;100391.44;5061141;28;20033;-79
2022/02/15 10:58:34;;;;;;;15.07;9.48;;;;;;;10.62;98.34;100405.88;5061679;28;20041;-80
2022/02/15 11:01:07;;;;;;;16.77;10.15;;;;;;;10.57;96.68;100408.13;5061540;28;20107;-79
2022/02/15 11:03:35;;;;;;;26.75;14.75;;;;;;;10.52;96.67;100411.16;5062422;28;20033;-79
2022/02/15 11:06:01;;;;;;;22.40;11.43;;;;;;;10.53;96.87;100412.78;5061495;28;20052;-80
2022/02/15 11:08:33;;;;;;;28.20;11.65;;;;;;;10.61;97.09;100414.59;5062130;28;20025;-80
2022/02/15 11:11:19;;;;;;;18.08;10.88;;;;;;;10.66;97.21;100411.56;5062470;28;20029;-80
2022/02/15 11:13:46;;;;;;;23.33;13.65;;;;;;;10.75;97.33;100404.63;5063000;28;20490;-80
2022/02/15 11:16:18;;;;;;;75.28;40.75;;;;;;;10.68;95.66;100409.22;5064116;28;20064;-79
2022/02/15 11:18:47;;;;;;;43.05;26.65;;;;;;;10.75;95.55;100403.81;5060782;28;20103;-79
2022/02/15 11:21:21;;;;;;;36.13;19.67;;;;;;;10.70;94.55;100407.66;5058124;28;20029;-80
2022/02/15 11:23:58;;;;;;;45.53;24.30;;;;;;;10.69;93.97;100402.47;5057715;28;20052;-80
2022/02/15 11:26:31;;;;;;;42.53;23.33;;;;;;;10.84;94.45;100401.66;5057800;28;20029;-80
2022/02/15 11:28:56;;;;;;;45.15;26.88;;;;;;;10.99;94.81;100403.63;5056714;28;20434;-80
2022/02/15 11:31:31;;;;;;;26.38;15.18;;;;;;;11.01;93.34;100389.34;5057432;28;20056;-80
2022/02/15 11:34:10;;;;;;;26.80;15.38;;;;;;;11.17;92.82;100403.25;5057398;28;20120;-79